createdAt,value
2022-09-15T00:00:50.036Z,13.93
2022-09-15T00:01:50.046Z,13.84
2022-09-15T00:02:50.028Z,13.90
2022-09-15T00:03:49.924Z,13.80
2022-09-15T00:04:49.881Z,13.80
2022-09-15T00:05:49.871Z,13.76
2022-09-15T00:06:49.803Z,13.75
2022-09-15T00:07:49.766Z,13.62
2022-09-15T00:08:49.725Z,13.72
2022-09-15T00:09:49.682Z,13.63
2022-09-15T00:10:49.656Z,13.57
2022-09-15T00:11:49.619Z,13.63
2022-09-15T00:12:49.569Z,13.66
2022-09-15T00:13:49.528Z,13.69
2022-09-15T00:14:49.488Z,13.73
2022-09-15T00:15:49.450Z,13.71
2022-09-15T00:16:49.435Z,13.59
2022-09-15T00:17:49.386Z,13.68
2022-09-15T00:18:49.337Z,13.66
2022-09-15T00:19:49.293Z,13.75
2022-09-15T00:20:49.254Z,13.79
2022-09-15T00:21:49.213Z,13.66
2022-09-15T00:22:49.178Z,13.72
2022-09-15T00:23:49.146Z,13.66
2022-09-15T00:24:49.099Z,13.73
2022-09-15T00:25:49.057Z,13.71
2022-09-15T00:26:49.037Z,13.76
2022-09-15T00:27:48.978Z,13.69
2022-09-15T00:28:48.943Z,13.79
2022-09-15T00:29:48.914Z,13.71
2022-09-15T00:30:48.913Z,13.73
2022-09-15T00:31:48.824Z,13.75
2022-09-15T00:32:48.786Z,13.68
2022-09-15T00:33:48.758Z,13.75
2022-09-15T00:34:48.707Z,13.79
2022-09-15T00:35:48.685Z,13.57
2022-09-15T00:36:48.629Z,13.68
2022-09-15T00:37:48.588Z,13.55
2022-09-15T00:38:48.558Z,13.57
2022-09-15T00:39:48.530Z,13.51
2022-09-15T00:40:48.490Z,13.44
2022-09-15T00:41:48.431Z,13.36
2022-09-15T00:42:48.396Z,13.39
2022-09-15T00:43:48.359Z,13.48
2022-09-15T00:44:48.314Z,13.46
2022-09-15T00:45:48.303Z,13.29
2022-09-15T00:47:04.008Z,13.36
2022-09-15T00:47:48.197Z,13.22
2022-09-15T00:48:48.158Z,13.29
2022-09-15T00:49:48.119Z,13.19
2022-09-15T00:50:48.077Z,13.27
2022-09-15T00:51:48.039Z,13.13
2022-09-15T00:52:48.008Z,13.10
2022-09-15T00:53:47.960Z,13.09
2022-09-15T00:54:47.920Z,13.07
2022-09-15T00:55:47.883Z,13.14
2022-09-15T00:56:47.842Z,13.04
2022-09-15T00:57:47.805Z,13.16
2022-09-15T00:58:47.842Z,12.98
2022-09-15T00:59:47.737Z,12.99
2022-09-15T01:00:47.742Z,13.01
2022-09-15T01:01:47.742Z,13.01
2022-09-15T01:02:47.614Z,12.98
2022-09-15T01:03:47.567Z,12.98
2022-09-15T01:04:47.539Z,12.79
2022-09-15T01:05:47.489Z,12.85
2022-09-15T01:06:47.450Z,12.84
2022-09-15T01:07:47.412Z,12.79
2022-09-15T01:08:47.371Z,12.92
2022-09-15T01:09:47.326Z,12.84
2022-09-15T01:10:47.307Z,12.84
2022-09-15T01:11:47.264Z,12.91
2022-09-15T01:12:47.211Z,12.85
2022-09-15T01:13:47.172Z,12.95
2022-09-15T01:14:47.201Z,12.87
2022-09-15T01:15:47.099Z,12.84
2022-09-15T01:16:47.104Z,12.71
2022-09-15T01:17:47.016Z,12.77
2022-09-15T01:18:46.974Z,12.61
2022-09-15T01:19:46.937Z,12.58
2022-09-15T01:20:46.897Z,12.54
2022-09-15T01:21:46.872Z,12.46
2022-09-15T01:22:46.847Z,12.51
2022-09-15T01:23:46.781Z,12.37
2022-09-15T01:24:46.738Z,12.46
2022-09-15T01:25:46.698Z,12.43
2022-09-15T01:26:46.657Z,12.40
2022-09-15T01:27:46.634Z,12.48
2022-09-15T01:28:46.580Z,12.48
2022-09-15T01:29:46.545Z,12.56
2022-09-15T01:30:46.500Z,12.40
2022-09-15T01:31:46.502Z,12.54
2022-09-15T01:32:46.490Z,12.36
2022-09-15T01:33:46.399Z,12.25
2022-09-15T01:34:46.342Z,12.33
2022-09-15T01:35:46.302Z,12.30
2022-09-15T01:36:46.266Z,12.31
2022-09-15T01:37:46.226Z,12.26
2022-09-15T01:38:46.186Z,12.25
2022-09-15T01:39:46.205Z,12.25
2022-09-15T01:40:46.123Z,12.29
2022-09-15T01:41:46.065Z,12.23
2022-09-15T01:42:46.047Z,12.23
2022-09-15T01:43:45.989Z,12.29
2022-09-15T01:44:45.948Z,12.23
2022-09-15T01:45:45.929Z,12.26
2022-09-15T01:46:45.877Z,12.23
2022-09-15T01:47:45.843Z,12.23
2022-09-15T01:48:45.787Z,12.25
2022-09-15T01:49:45.748Z,12.22
2022-09-15T01:50:45.706Z,12.05
2022-09-15T01:51:45.672Z,12.07
2022-09-15T01:52:45.695Z,11.97
2022-09-15T01:53:45.586Z,12.13
2022-09-15T01:54:45.548Z,12.03
2022-09-15T01:55:45.532Z,12.00
2022-09-15T01:56:45.467Z,12.00
2022-09-15T01:57:45.435Z,11.97
2022-09-15T01:58:45.388Z,12.04
2022-09-15T01:59:45.349Z,12.01
2022-09-15T02:00:53.990Z,11.93
2022-09-15T02:01:45.303Z,11.85
2022-09-15T02:02:45.282Z,11.79
2022-09-15T02:03:45.190Z,11.81
2022-09-15T02:04:45.152Z,11.96
2022-09-15T02:05:45.108Z,11.96
2022-09-15T02:06:45.078Z,11.88
2022-09-15T02:07:45.045Z,11.88
2022-09-15T02:08:45.021Z,11.97
2022-09-15T02:09:44.976Z,11.90
2022-09-15T02:10:44.909Z,11.84
2022-09-15T02:11:44.870Z,11.90
2022-09-15T02:12:44.874Z,11.75
2022-09-15T02:13:44.791Z,11.69
2022-09-15T02:14:44.751Z,11.75
2022-09-15T02:15:44.715Z,11.70
2022-09-15T02:16:44.720Z,11.77
2022-09-15T02:17:44.645Z,11.79
2022-09-15T02:18:44.614Z,11.79
2022-09-15T02:19:44.552Z,11.85
2022-09-15T02:20:44.510Z,11.84
2022-09-15T02:21:44.472Z,11.74
2022-09-15T02:22:44.513Z,11.82
2022-09-15T02:23:44.466Z,11.82
2022-09-15T02:24:44.351Z,11.81
2022-09-15T02:25:44.310Z,11.72
2022-09-15T02:26:44.273Z,11.77
2022-09-15T02:27:44.231Z,11.82
2022-09-15T02:28:44.204Z,11.78
2022-09-15T02:29:44.151Z,11.82
2022-09-15T02:30:44.110Z,11.77
2022-09-15T02:31:44.118Z,11.64
2022-09-15T02:32:44.030Z,11.59
2022-09-15T02:33:44.010Z,11.64
2022-09-15T02:34:43.993Z,11.72
2022-09-15T02:35:43.912Z,11.72
2022-09-15T02:36:43.871Z,11.81
2022-09-15T02:37:43.838Z,11.75
2022-09-15T02:38:43.793Z,11.82
2022-09-15T02:39:43.763Z,11.84
2022-09-15T02:40:43.714Z,11.70
2022-09-15T02:41:43.671Z,11.72
2022-09-15T02:42:43.629Z,11.74
2022-09-15T02:43:43.592Z,11.59
2022-09-15T02:44:43.552Z,11.63
2022-09-15T02:45:43.593Z,11.75
2022-09-15T02:46:43.485Z,11.64
2022-09-15T02:47:43.440Z,11.64
2022-09-15T02:48:43.392Z,11.57
2022-09-15T02:49:43.356Z,11.51
2022-09-15T02:50:43.310Z,11.53
2022-09-15T02:51:43.287Z,11.53
2022-09-15T02:52:43.232Z,11.59
2022-09-15T02:53:43.252Z,11.78
2022-09-15T02:54:43.874Z,11.60
2022-09-15T02:55:43.111Z,11.60
2022-09-15T02:56:43.069Z,11.57
2022-09-15T02:57:43.044Z,11.54
2022-09-15T02:58:43.005Z,11.66
2022-09-15T02:59:42.957Z,11.59
2022-09-15T03:00:42.952Z,11.66
2022-09-15T03:01:42.930Z,11.74
2022-09-15T03:02:42.836Z,11.70
2022-09-15T03:03:43.118Z,11.63
2022-09-15T03:04:42.762Z,11.64
2022-09-15T03:05:42.723Z,11.69
2022-09-15T03:06:42.670Z,11.75
2022-09-15T03:07:42.630Z,11.53
2022-09-15T03:08:42.677Z,11.45
2022-09-15T03:09:42.550Z,11.46
2022-09-15T03:10:42.509Z,11.44
2022-09-15T03:11:42.485Z,11.42
2022-09-15T03:12:42.429Z,11.48
2022-09-15T03:13:42.401Z,11.36
2022-09-15T03:14:42.349Z,11.46
2022-09-15T03:15:42.312Z,11.39
2022-09-15T03:16:42.319Z,11.41
2022-09-15T03:17:42.242Z,11.44
2022-09-15T03:18:42.196Z,11.46
2022-09-15T03:19:42.149Z,11.38
2022-09-15T03:20:42.114Z,11.31
2022-09-15T03:21:42.068Z,11.26
2022-09-15T03:22:42.032Z,11.39
2022-09-15T03:23:42.052Z,11.48
2022-09-15T03:24:41.948Z,11.51
2022-09-15T03:25:41.907Z,11.45
2022-09-15T03:26:41.868Z,11.51
2022-09-15T03:27:41.831Z,11.49
2022-09-15T03:28:41.788Z,11.44
2022-09-15T03:29:41.761Z,11.59
2022-09-15T03:30:41.722Z,11.54
2022-09-15T03:31:41.818Z,11.60
2022-09-15T03:32:41.628Z,11.57
2022-09-15T03:33:41.588Z,11.81
2022-09-15T03:34:41.544Z,11.85
2022-09-15T03:35:41.508Z,11.75
2022-09-15T03:36:41.477Z,11.75
2022-09-15T03:37:41.429Z,11.77
2022-09-15T03:38:41.398Z,11.69
2022-09-15T03:39:41.346Z,11.77
2022-09-15T03:40:41.306Z,11.69
2022-09-15T03:41:41.269Z,11.79
2022-09-15T03:42:41.236Z,11.97
2022-09-15T03:43:41.198Z,11.93
2022-09-15T03:44:41.147Z,11.90
2022-09-15T03:45:41.122Z,12.04
2022-09-15T03:46:41.065Z,12.01
2022-09-15T03:47:41.027Z,12.13
2022-09-15T03:48:40.987Z,12.04
2022-09-15T03:49:40.960Z,12.05
2022-09-15T03:50:40.906Z,12.11
2022-09-15T03:51:40.867Z,12.11
2022-09-15T03:52:40.831Z,12.05
2022-09-15T03:53:40.788Z,12.08
2022-09-15T03:54:40.746Z,12.08
2022-09-15T03:55:40.717Z,12.18
2022-09-15T03:56:40.667Z,12.15
2022-09-15T03:57:40.627Z,12.15
2022-09-15T03:58:40.587Z,12.21
2022-09-15T03:59:40.549Z,12.16
2022-09-15T04:00:40.539Z,12.15
2022-09-15T04:01:40.527Z,12.26
2022-09-15T04:02:40.440Z,12.23
2022-09-15T04:03:46.402Z,12.23
2022-09-15T04:04:40.350Z,12.30
2022-09-15T04:05:40.308Z,12.21
2022-09-15T04:06:40.269Z,12.31
2022-09-15T04:07:40.231Z,12.25
2022-09-15T04:08:40.200Z,12.26
2022-09-15T04:09:40.151Z,12.31
2022-09-15T04:10:40.111Z,12.30
2022-09-15T04:11:40.072Z,12.34
2022-09-15T04:12:40.032Z,12.34
2022-09-15T04:13:39.992Z,12.37
2022-09-15T04:14:39.962Z,12.33
2022-09-15T04:15:39.922Z,12.36
2022-09-15T04:16:39.914Z,12.38
2022-09-15T04:17:39.834Z,12.34
2022-09-15T04:18:39.796Z,12.44
2022-09-15T04:19:39.765Z,12.48
2022-09-15T04:20:39.720Z,12.54
2022-09-15T04:21:39.677Z,12.46
2022-09-15T04:22:39.634Z,12.55
2022-09-15T04:23:39.603Z,12.51
2022-09-15T04:24:39.557Z,12.61
2022-09-15T04:25:39.525Z,12.56
2022-09-15T04:26:39.474Z,12.62
2022-09-15T04:27:39.438Z,12.61
2022-09-15T04:28:39.397Z,12.71
2022-09-15T04:29:39.359Z,12.69
2022-09-15T04:30:39.318Z,12.67
2022-09-15T04:31:39.324Z,12.70
2022-09-15T04:32:39.239Z,12.71
2022-09-15T04:33:39.200Z,12.73
2022-09-15T04:34:41.409Z,12.81
2022-09-15T04:35:39.124Z,13.07
2022-09-15T04:36:39.080Z,12.99
2022-09-15T04:37:39.055Z,13.04
2022-09-15T04:38:39.002Z,13.03
2022-09-15T04:39:38.967Z,12.98
2022-09-15T04:40:38.927Z,13.03
2022-09-15T04:41:38.884Z,13.09
2022-09-15T04:42:38.843Z,13.17
2022-09-15T04:43:38.820Z,13.10
2022-09-15T04:44:38.765Z,13.09
2022-09-15T04:45:38.731Z,13.14
2022-09-15T04:46:38.716Z,13.22
2022-09-15T04:47:38.648Z,13.28
2022-09-15T04:48:38.609Z,13.28
2022-09-15T04:49:38.580Z,13.38
2022-09-15T04:50:38.530Z,13.46
2022-09-15T04:51:38.491Z,13.39
2022-09-15T04:52:38.454Z,13.35
2022-09-15T04:53:38.411Z,13.32
2022-09-15T04:54:38.376Z,13.19
2022-09-15T04:55:38.347Z,13.13
2022-09-15T04:56:38.294Z,13.17
2022-09-15T04:57:38.256Z,13.04
2022-09-15T04:58:38.275Z,13.03
2022-09-15T04:59:38.175Z,13.17
2022-09-15T05:00:38.210Z,13.17
2022-09-15T05:01:38.170Z,13.16
2022-09-15T05:02:38.062Z,13.19
2022-09-15T05:03:38.021Z,13.32
2022-09-15T05:04:37.982Z,13.44
2022-09-15T05:05:37.939Z,13.44
2022-09-15T05:06:37.908Z,13.41
2022-09-15T05:07:37.876Z,13.55
2022-09-15T05:08:37.823Z,13.79
2022-09-15T05:09:37.782Z,13.73
2022-09-15T05:10:37.747Z,13.76
2022-09-15T05:11:37.705Z,13.73
2022-09-15T05:12:37.672Z,13.59
2022-09-15T05:13:37.638Z,13.57
2022-09-15T05:14:37.594Z,13.65
2022-09-15T05:15:37.561Z,13.71
2022-09-15T05:16:37.565Z,13.69
2022-09-15T05:17:37.471Z,13.73
2022-09-15T05:18:37.431Z,13.72
2022-09-15T05:19:37.392Z,13.68
2022-09-15T05:20:37.353Z,13.66
2022-09-15T05:21:37.325Z,13.75
2022-09-15T05:22:41.514Z,13.84
2022-09-15T05:23:37.249Z,13.76
2022-09-15T05:24:37.195Z,13.68
2022-09-15T05:25:37.158Z,13.65
2022-09-15T05:26:37.118Z,13.75
2022-09-15T05:27:37.097Z,13.79
2022-09-15T05:28:37.039Z,13.91
2022-09-15T05:29:36.997Z,13.86
2022-09-15T05:30:40.499Z,13.86
2022-09-15T05:31:37.009Z,13.86
2022-09-15T05:32:36.886Z,13.75
2022-09-15T05:33:36.860Z,13.73
2022-09-15T05:34:36.818Z,13.81
2022-09-15T05:35:36.765Z,13.65
2022-09-15T05:36:36.727Z,13.69
2022-09-15T05:37:36.686Z,13.73
2022-09-15T05:38:36.651Z,13.63
2022-09-15T05:39:36.621Z,13.63
2022-09-15T05:40:36.568Z,13.63
2022-09-15T05:41:36.530Z,13.61
2022-09-15T05:42:36.492Z,13.55
2022-09-15T05:43:36.453Z,13.55
2022-09-15T05:44:36.414Z,13.59
2022-09-15T05:45:36.385Z,13.39
2022-09-15T05:46:36.397Z,13.51
2022-09-15T05:47:36.298Z,13.57
2022-09-15T05:48:36.257Z,13.43
2022-09-15T05:49:36.222Z,13.57
2022-09-15T05:50:36.182Z,13.57
2022-09-15T05:51:36.150Z,13.53
2022-09-15T05:52:36.106Z,13.65
2022-09-15T05:53:36.072Z,13.59
2022-09-15T05:54:36.025Z,13.57
2022-09-15T05:55:35.988Z,13.66
2022-09-15T05:56:35.961Z,13.69
2022-09-15T05:57:35.905Z,13.72
2022-09-15T05:58:35.867Z,13.79
2022-09-15T05:59:35.829Z,13.73
2022-09-15T06:00:35.788Z,13.72
2022-09-15T06:01:35.839Z,13.79
2022-09-15T06:02:35.858Z,13.75
2022-09-15T06:03:35.674Z,13.79
2022-09-15T06:04:35.635Z,13.71
2022-09-15T06:05:35.599Z,13.73
2022-09-15T06:06:35.556Z,13.86
2022-09-15T06:07:35.516Z,13.90
2022-09-15T06:08:35.489Z,13.99
2022-09-15T06:09:35.445Z,14.04
2022-09-15T06:10:35.402Z,13.99
2022-09-15T06:11:35.366Z,14.02
2022-09-15T06:12:35.326Z,13.98
2022-09-15T06:13:35.285Z,14.12
2022-09-15T06:14:35.266Z,14.04
2022-09-15T06:15:35.207Z,14.16
2022-09-15T06:16:35.225Z,14.09
2022-09-15T06:17:35.130Z,14.13
2022-09-15T06:18:35.091Z,14.23
2022-09-15T06:19:35.056Z,14.23
2022-09-15T06:20:35.029Z,14.29
2022-09-15T06:21:34.977Z,14.26
2022-09-15T06:22:34.938Z,14.26
2022-09-15T06:23:34.898Z,14.35
2022-09-15T06:24:34.861Z,14.38
2022-09-15T06:25:34.821Z,14.53
2022-09-15T06:26:34.796Z,14.57
2022-09-15T06:27:34.743Z,14.56
2022-09-15T06:28:34.710Z,14.54
2022-09-15T06:29:34.667Z,14.52
2022-09-15T06:30:34.632Z,14.53
2022-09-15T06:31:34.676Z,14.56
2022-09-15T06:32:34.563Z,14.71
2022-09-15T06:33:34.515Z,14.63
2022-09-15T06:34:34.481Z,14.82
2022-09-15T06:35:34.443Z,14.78
2022-09-15T06:36:34.405Z,14.72
2022-09-15T06:37:34.360Z,14.93
2022-09-15T06:38:34.335Z,14.90
2022-09-15T06:39:34.286Z,14.85
2022-09-15T06:40:34.259Z,14.82
2022-09-15T06:41:58.403Z,14.82
2022-09-15T06:42:34.192Z,14.61
2022-09-15T06:43:34.132Z,14.54
2022-09-15T06:44:34.175Z,14.59
2022-09-15T06:45:34.056Z,14.54
2022-09-15T06:46:34.066Z,14.48
2022-09-15T06:47:34.157Z,14.54
2022-09-15T06:48:33.943Z,14.60
2022-09-15T06:49:33.904Z,14.63
2022-09-15T06:50:34.031Z,14.54
2022-09-15T06:51:33.832Z,14.61
2022-09-15T06:52:33.789Z,14.53
2022-09-15T06:53:33.751Z,14.69
2022-09-15T06:54:33.723Z,14.72
2022-09-15T06:55:33.676Z,14.80
2022-09-15T06:56:37.907Z,14.98
2022-09-15T06:57:33.600Z,14.91
2022-09-15T06:58:33.563Z,15.00
2022-09-15T06:59:33.524Z,15.03
2022-09-15T07:00:33.488Z,15.16
2022-09-15T07:01:33.457Z,15.20
2022-09-15T07:02:33.523Z,15.34
2022-09-15T07:03:33.454Z,15.43
2022-09-15T07:04:33.337Z,15.28
2022-09-15T07:05:33.297Z,15.30
2022-09-15T07:06:33.259Z,15.16
2022-09-15T07:07:33.224Z,15.16
2022-09-15T07:08:33.195Z,15.04
2022-09-15T07:09:33.153Z,15.01
2022-09-15T07:10:33.110Z,14.98
2022-09-15T07:11:33.072Z,15.04
2022-09-15T07:12:33.036Z,15.09
2022-09-15T07:13:32.995Z,15.05
2022-09-15T07:14:32.971Z,15.11
2022-09-15T07:15:32.921Z,15.13
2022-09-15T07:16:32.933Z,15.04
2022-09-15T07:17:32.844Z,15.12
2022-09-15T07:18:32.809Z,15.01
2022-09-15T07:19:32.769Z,15.03
2022-09-15T07:20:32.742Z,15.07
2022-09-15T07:21:32.706Z,15.07
2022-09-15T07:22:32.662Z,15.07
2022-09-15T07:23:32.618Z,15.15
2022-09-15T07:24:32.583Z,15.20
2022-09-15T07:25:32.552Z,15.31
2022-09-15T07:26:32.531Z,15.22
2022-09-15T07:27:32.468Z,15.33
2022-09-15T07:28:32.430Z,15.44
2022-09-15T07:29:35.921Z,15.40
2022-09-15T07:30:32.357Z,15.33
2022-09-15T07:31:32.387Z,15.52
2022-09-15T07:32:32.296Z,15.48
2022-09-15T07:33:32.243Z,15.60
2022-09-15T07:34:32.205Z,15.67
2022-09-15T07:35:32.167Z,15.67
2022-09-15T07:36:32.130Z,15.62
2022-09-15T07:37:32.092Z,15.62
2022-09-15T07:38:32.068Z,15.74
2022-09-15T07:39:32.028Z,15.67
2022-09-15T07:40:32.022Z,15.76
2022-09-15T07:41:31.947Z,15.76
2022-09-15T07:42:35.306Z,15.80
2022-09-15T07:43:31.882Z,15.88
2022-09-15T07:44:31.832Z,15.86
2022-09-15T07:45:31.845Z,15.88
2022-09-15T07:46:31.786Z,15.85
2022-09-15T07:47:31.717Z,15.99
2022-09-15T07:48:31.680Z,16.04
2022-09-15T07:49:31.656Z,16.03
2022-09-15T07:50:31.606Z,15.98
2022-09-15T07:51:31.569Z,16.04
2022-09-15T07:52:31.543Z,16.08
2022-09-15T07:53:31.493Z,16.11
2022-09-15T07:54:31.471Z,16.33
2022-09-15T07:55:31.418Z,16.26
2022-09-15T07:56:31.393Z,16.45
2022-09-15T07:57:31.347Z,16.48
2022-09-15T07:58:31.319Z,16.55
2022-09-15T07:59:31.279Z,16.75
2022-09-15T08:00:31.303Z,16.85
2022-09-15T08:01:31.300Z,16.84
2022-09-15T08:02:31.167Z,16.81
2022-09-15T08:03:31.125Z,16.85
2022-09-15T08:04:31.092Z,16.90
2022-09-15T08:05:33.736Z,16.91
2022-09-15T08:06:31.094Z,16.96
2022-09-15T08:07:30.982Z,16.82
2022-09-15T08:08:30.950Z,16.88
2022-09-15T08:09:30.910Z,16.81
2022-09-15T08:10:30.874Z,16.98
2022-09-15T08:11:30.846Z,17.02
2022-09-15T08:12:30.804Z,17.10
2022-09-15T08:13:30.761Z,17.21
2022-09-15T08:14:30.726Z,17.28
2022-09-15T08:15:30.688Z,17.62
2022-09-15T08:16:30.777Z,17.77
2022-09-15T08:17:30.617Z,17.91
2022-09-15T08:18:30.583Z,17.87
2022-09-15T08:19:30.547Z,18.02
2022-09-15T08:20:30.510Z,17.87
2022-09-15T08:21:30.471Z,17.91
2022-09-15T08:22:30.448Z,17.77
2022-09-15T08:23:30.414Z,17.60
2022-09-15T08:24:30.372Z,17.47
2022-09-15T08:25:30.327Z,17.39
2022-09-15T08:26:30.293Z,17.28
2022-09-15T08:27:30.264Z,17.10
2022-09-15T08:28:30.223Z,17.18
2022-09-15T08:29:30.203Z,17.24
2022-09-15T08:30:30.149Z,17.65
2022-09-15T08:31:30.163Z,17.74
2022-09-15T08:32:30.083Z,17.84
2022-09-15T08:33:30.043Z,17.98
2022-09-15T08:34:30.007Z,17.91
2022-09-15T08:35:29.984Z,17.89
2022-09-15T08:36:29.937Z,17.76
2022-09-15T08:37:29.897Z,17.89
2022-09-15T08:38:29.866Z,18.02
2022-09-15T08:39:29.826Z,18.20
2022-09-15T08:40:29.890Z,18.20
2022-09-15T08:41:29.766Z,18.28
2022-09-15T08:42:29.794Z,18.23
2022-09-15T08:43:29.683Z,18.25
2022-09-15T08:44:29.648Z,18.31
2022-09-15T08:45:29.615Z,18.50
2022-09-15T08:46:29.613Z,18.71
2022-09-15T08:47:29.556Z,19.05
2022-09-15T08:48:29.507Z,19.31
2022-09-15T08:49:50.025Z,19.64
2022-09-15T08:50:29.434Z,19.61
2022-09-15T08:51:29.400Z,19.83
2022-09-15T08:52:29.365Z,19.92
2022-09-15T08:53:29.342Z,19.85
2022-09-15T08:54:29.297Z,19.67
2022-09-15T08:55:29.260Z,19.67
2022-09-15T08:56:29.225Z,19.58
2022-09-15T08:57:29.187Z,19.61
2022-09-15T08:58:29.156Z,19.57
2022-09-15T08:59:29.130Z,19.60
2022-09-15T09:00:29.090Z,19.58
2022-09-15T09:01:29.109Z,19.62
2022-09-15T09:02:29.033Z,19.83
2022-09-15T09:03:28.979Z,20.02
2022-09-15T09:04:28.946Z,20.20
2022-09-15T09:05:28.925Z,20.35
2022-09-15T09:06:28.876Z,20.35
2022-09-15T09:07:28.854Z,20.38
2022-09-15T09:08:28.808Z,20.33
2022-09-15T09:09:28.772Z,20.46
2022-09-15T09:10:28.738Z,20.64
2022-09-15T09:11:28.721Z,20.76
2022-09-15T09:12:28.673Z,20.72
2022-09-15T09:13:32.133Z,20.72
2022-09-15T09:14:28.601Z,20.57
2022-09-15T09:15:28.604Z,20.71
2022-09-15T09:16:28.533Z,20.90
2022-09-15T09:17:28.512Z,20.69
2022-09-15T09:18:28.462Z,20.56
2022-09-15T09:19:31.985Z,20.91
2022-09-15T09:20:28.399Z,20.93
2022-09-15T09:21:28.366Z,21.09
2022-09-15T09:22:28.331Z,21.30
2022-09-15T09:23:28.305Z,21.49
2022-09-15T09:24:28.261Z,21.70
2022-09-15T09:25:28.642Z,21.34
2022-09-15T09:26:28.211Z,20.97
2022-09-15T09:27:28.163Z,20.81
2022-09-15T09:28:28.130Z,20.58
2022-09-15T09:29:28.094Z,20.41
2022-09-15T09:30:28.106Z,20.53
2022-09-15T09:31:28.071Z,20.54
2022-09-15T09:32:28.008Z,20.50
2022-09-15T09:33:27.962Z,20.46
2022-09-15T09:34:27.926Z,20.33
2022-09-15T09:35:27.893Z,20.35
2022-09-15T09:36:27.859Z,20.40
2022-09-15T09:37:27.830Z,20.08
2022-09-15T09:38:27.807Z,19.95
2022-09-15T09:39:27.763Z,19.80
2022-09-15T09:40:27.771Z,19.76
2022-09-15T09:41:27.692Z,19.78
2022-09-15T09:42:27.674Z,19.72
2022-09-15T09:43:27.790Z,19.82
2022-09-15T09:44:27.603Z,20.02
2022-09-15T09:45:27.555Z,20.20
2022-09-15T09:46:27.697Z,20.33
2022-09-15T09:47:27.511Z,20.50
2022-09-15T09:48:27.483Z,20.34
2022-09-15T09:49:27.420Z,20.31
2022-09-15T09:50:27.396Z,20.58
2022-09-15T09:51:27.354Z,20.58
2022-09-15T09:52:27.320Z,20.78
2022-09-15T09:53:27.290Z,21.03
2022-09-15T09:54:27.280Z,21.01
2022-09-15T09:55:27.214Z,20.76
2022-09-15T09:56:27.180Z,20.75
2022-09-15T09:57:27.147Z,21.01
2022-09-15T09:58:27.111Z,21.11
2022-09-15T09:59:27.078Z,21.12
2022-09-15T10:00:27.077Z,21.05
2022-09-15T10:01:27.067Z,21.27
2022-09-15T10:02:26.978Z,21.45
2022-09-15T10:03:32.089Z,21.49
2022-09-15T10:04:26.941Z,21.48
2022-09-15T10:05:26.878Z,21.49
2022-09-15T10:06:26.852Z,21.36
2022-09-15T10:07:26.816Z,21.19
2022-09-15T10:08:26.776Z,21.28
2022-09-15T10:09:29.980Z,21.05
2022-09-15T10:10:26.709Z,21.12
2022-09-15T10:11:26.678Z,21.03
2022-09-15T10:12:26.657Z,20.78
2022-09-15T10:13:26.608Z,20.98
2022-09-15T10:14:26.576Z,21.01
2022-09-15T10:15:26.546Z,20.98
2022-09-15T10:16:26.588Z,20.83
2022-09-15T10:17:26.475Z,20.75
2022-09-15T10:18:26.454Z,20.82
2022-09-15T10:19:26.407Z,20.72
2022-09-15T10:20:26.373Z,20.58
2022-09-15T10:21:26.342Z,20.30
2022-09-15T10:22:26.304Z,20.25
2022-09-15T10:23:26.272Z,20.22
2022-09-15T10:24:26.260Z,20.31
2022-09-15T10:25:39.533Z,20.26
2022-09-15T10:26:26.170Z,20.26
2022-09-15T10:27:26.139Z,20.35
2022-09-15T10:28:26.174Z,20.35
2022-09-15T10:29:26.071Z,20.27
2022-09-15T10:30:26.074Z,20.30
2022-09-15T10:31:26.046Z,20.26
2022-09-15T10:32:26.037Z,20.38
2022-09-15T10:33:26.000Z,20.33
2022-09-15T10:34:25.898Z,20.31
2022-09-15T10:35:25.866Z,20.35
2022-09-15T10:36:25.839Z,20.42
2022-09-15T10:37:25.795Z,20.61
2022-09-15T10:38:25.760Z,20.57
2022-09-15T10:39:25.733Z,20.60
2022-09-15T10:40:25.764Z,20.56
2022-09-15T10:41:25.673Z,20.82
2022-09-15T10:42:25.627Z,20.91
2022-09-15T10:43:25.593Z,20.87
2022-09-15T10:44:25.557Z,21.03
2022-09-15T10:45:25.570Z,21.08
2022-09-15T10:46:25.491Z,20.93
2022-09-15T10:47:25.465Z,20.63
2022-09-15T10:48:25.420Z,20.68
2022-09-15T10:49:25.386Z,20.64
2022-09-15T10:50:25.388Z,20.82
2022-09-15T10:51:25.321Z,20.61
2022-09-15T10:52:25.299Z,20.73
2022-09-15T10:53:25.250Z,20.90
2022-09-15T10:54:25.215Z,20.79
2022-09-15T10:55:48.578Z,20.93
2022-09-15T10:56:25.161Z,20.85
2022-09-15T10:58:25.089Z,20.78
2022-09-15T10:59:25.046Z,20.61
2022-09-15T11:00:25.012Z,20.54
2022-09-15T11:01:25.016Z,20.51
2022-09-15T11:02:24.998Z,20.30
2022-09-15T11:03:24.920Z,20.30
2022-09-15T11:04:24.875Z,20.26
2022-09-15T11:05:24.841Z,20.35
2022-09-15T11:06:24.842Z,20.61
2022-09-15T11:07:24.772Z,20.69
2022-09-15T11:08:24.738Z,20.71
2022-09-15T11:09:24.716Z,20.73
2022-09-15T11:10:24.670Z,20.94
2022-09-15T11:11:24.634Z,21.12
2022-09-15T11:12:28.920Z,21.12
2022-09-15T11:13:24.566Z,21.30
2022-09-15T11:14:24.531Z,21.22
2022-09-15T11:15:24.511Z,21.28
2022-09-15T11:16:24.546Z,21.24
2022-09-15T11:17:24.433Z,20.90
2022-09-15T11:18:24.397Z,20.94
2022-09-15T11:19:24.363Z,20.83
2022-09-15T11:20:24.340Z,20.75
2022-09-15T11:21:24.295Z,20.40
2022-09-15T11:22:24.279Z,20.20
2022-09-15T11:23:24.228Z,20.15
2022-09-15T11:24:24.193Z,19.89
2022-09-15T11:25:24.158Z,19.78
2022-09-15T11:26:24.136Z,19.71
2022-09-15T11:27:24.090Z,19.52
2022-09-15T11:28:24.055Z,19.32
2022-09-15T11:29:24.021Z,19.23
2022-09-15T11:30:23.985Z,19.06
2022-09-15T11:31:23.992Z,19.06
2022-09-15T11:32:23.929Z,19.01
2022-09-15T11:33:23.884Z,19.09
2022-09-15T11:34:23.846Z,18.96
2022-09-15T11:35:23.828Z,18.90
2022-09-15T11:36:24.654Z,18.90
2022-09-15T11:37:23.743Z,18.76
2022-09-15T11:38:23.716Z,18.66
2022-09-15T11:39:23.678Z,18.56
2022-09-15T11:40:23.707Z,18.72
2022-09-15T11:41:23.601Z,18.66
2022-09-15T11:42:23.576Z,18.65
2022-09-15T11:43:23.550Z,18.66
2022-09-15T11:44:23.534Z,18.69
2022-09-15T11:45:23.459Z,18.82
2022-09-15T11:46:23.457Z,18.68
2022-09-15T11:47:23.389Z,18.64
2022-09-15T11:48:23.352Z,18.60
2022-09-15T11:49:23.330Z,18.66
2022-09-15T11:50:23.280Z,18.53
2022-09-15T11:51:23.247Z,18.60
2022-09-15T11:52:23.211Z,18.59
2022-09-15T11:53:23.174Z,18.53
2022-09-15T11:54:23.137Z,18.49
2022-09-15T11:55:23.114Z,18.42
2022-09-15T11:56:23.066Z,18.39
2022-09-15T11:57:23.029Z,18.44
2022-09-15T11:58:23.001Z,18.28
2022-09-15T11:59:22.959Z,18.26
2022-09-15T12:00:22.923Z,18.25
2022-09-15T12:01:22.899Z,18.31
2022-09-15T12:02:22.891Z,18.31
2022-09-15T12:03:22.872Z,18.32
2022-09-15T12:04:22.778Z,18.28
2022-09-15T12:05:22.744Z,18.35
2022-09-15T12:06:22.704Z,18.36
2022-09-15T12:07:22.685Z,18.39
2022-09-15T12:08:22.634Z,18.42
2022-09-15T12:09:22.596Z,18.39
2022-09-15T12:10:22.610Z,18.50
2022-09-15T12:11:22.531Z,18.54
2022-09-15T12:12:22.539Z,18.47
2022-09-15T12:13:22.464Z,18.59
2022-09-15T12:14:22.426Z,18.75
2022-09-15T12:15:22.379Z,18.84
2022-09-15T12:16:22.397Z,19.01
2022-09-15T12:17:22.308Z,19.25
2022-09-15T12:18:37.766Z,19.27
2022-09-15T12:19:22.234Z,19.42
2022-09-15T12:20:22.210Z,19.45
2022-09-15T12:21:22.163Z,19.75
2022-09-15T12:22:22.126Z,19.72
2022-09-15T12:23:22.095Z,19.67
2022-09-15T12:24:22.060Z,19.71
2022-09-15T12:25:22.020Z,19.31
2022-09-15T12:26:21.997Z,19.27
2022-09-15T12:27:21.950Z,19.15
2022-09-15T12:28:21.951Z,18.94
2022-09-15T12:29:21.884Z,18.83
2022-09-15T12:30:21.871Z,18.69
2022-09-15T12:31:21.871Z,18.66
2022-09-15T12:32:21.786Z,18.49
2022-09-15T12:33:21.733Z,18.42
2022-09-15T12:34:21.697Z,18.42
2022-09-15T12:35:21.660Z,18.50
2022-09-15T12:36:21.621Z,18.49
2022-09-15T12:37:21.591Z,18.35
2022-09-15T12:38:21.560Z,18.46
2022-09-15T12:39:21.518Z,18.42
2022-09-15T12:40:21.522Z,18.32
2022-09-15T12:41:21.444Z,18.46
2022-09-15T12:42:21.435Z,18.49
2022-09-15T12:43:21.373Z,18.54
2022-09-15T12:44:21.334Z,18.50
2022-09-15T12:45:21.299Z,18.56
2022-09-15T12:46:21.296Z,18.51
2022-09-15T12:47:21.229Z,18.51
2022-09-15T12:48:21.199Z,18.51
2022-09-15T12:49:21.154Z,18.69
2022-09-15T12:50:21.118Z,18.60
2022-09-15T12:51:21.082Z,18.71
2022-09-15T12:52:21.045Z,18.76
2022-09-15T12:53:21.061Z,18.75